createdAt,value
2022-08-31T00:01:25.512Z,26.40
2022-08-31T00:03:58.511Z,26.40
2022-08-31T00:06:31.561Z,26.40
2022-08-31T00:09:04.567Z,26.40
2022-08-31T00:11:38.057Z,26.40
2022-08-31T00:14:12.446Z,26.39
2022-08-31T00:16:43.858Z,26.39
2022-08-31T00:19:17.488Z,26.39
2022-08-31T00:21:50.556Z,26.38
2022-08-31T00:24:23.581Z,26.38
2022-08-31T00:27:02.466Z,26.38
2022-08-31T00:29:35.600Z,26.37
2022-08-31T00:32:08.672Z,26.37
2022-08-31T00:34:41.589Z,26.37
2022-08-31T00:37:14.609Z,26.37
2022-08-31T00:39:47.551Z,26.36
2022-08-31T00:42:20.545Z,26.36
2022-08-31T00:44:53.573Z,26.36
2022-08-31T00:47:26.650Z,26.35
2022-08-31T00:49:59.618Z,26.35
2022-08-31T00:52:33.329Z,26.35
2022-08-31T00:55:05.662Z,26.34
2022-08-31T00:57:38.653Z,26.34
2022-08-31T01:00:11.286Z,26.33
2022-08-31T01:02:44.665Z,26.33
2022-08-31T01:05:17.639Z,26.33
2022-08-31T01:07:50.681Z,26.32
2022-08-31T01:10:23.590Z,26.32
2022-08-31T01:12:56.719Z,26.32
2022-08-31T01:15:29.618Z,26.32
2022-08-31T01:18:02.662Z,26.31
2022-08-31T01:20:35.410Z,26.31
2022-08-31T01:23:08.675Z,26.31
2022-08-31T01:25:41.704Z,26.31
2022-08-31T01:28:14.732Z,26.30
2022-08-31T01:30:47.410Z,26.30
2022-08-31T01:33:20.638Z,26.29
2022-08-31T01:35:53.704Z,26.29
2022-08-31T01:38:26.632Z,26.29
2022-08-31T01:40:59.705Z,26.29
2022-08-31T01:43:32.657Z,26.28
2022-08-31T01:46:05.718Z,26.28
2022-08-31T01:48:41.227Z,26.28
2022-08-31T01:51:12.485Z,26.27
2022-08-31T01:53:45.557Z,26.27
2022-08-31T01:56:17.762Z,26.27
2022-08-31T01:58:50.704Z,26.26
2022-08-31T02:01:33.082Z,26.26
2022-08-31T02:03:57.190Z,26.26
2022-08-31T02:06:29.723Z,26.26
2022-08-31T02:09:02.727Z,26.25
2022-08-31T02:11:35.674Z,26.25
2022-08-31T02:14:08.753Z,26.25
2022-08-31T02:16:41.813Z,26.24
2022-08-31T02:19:14.730Z,26.24
2022-08-31T02:21:47.756Z,26.23
2022-08-31T02:24:20.680Z,26.23
2022-08-31T02:26:54.077Z,26.23
2022-08-31T02:29:26.720Z,26.22
2022-08-31T02:31:59.784Z,26.22
2022-08-31T02:34:32.790Z,26.21
2022-08-31T02:37:05.782Z,26.21
2022-08-31T02:39:38.749Z,26.20
2022-08-31T02:42:14.705Z,26.20
2022-08-31T02:44:47.796Z,26.20
2022-08-31T02:47:20.807Z,26.20
2022-08-31T02:49:53.799Z,26.19
2022-08-31T02:52:26.701Z,26.19
2022-08-31T02:54:59.772Z,26.19
2022-08-31T02:57:32.828Z,26.19
2022-08-31T03:00:05.603Z,26.19
2022-08-31T03:02:38.881Z,26.18
2022-08-31T03:05:11.816Z,26.18
2022-08-31T03:07:44.812Z,26.18
2022-08-31T03:10:17.771Z,26.18
2022-08-31T03:12:50.840Z,26.18
2022-08-31T03:15:23.842Z,26.17
2022-08-31T03:17:56.888Z,26.17
2022-08-31T03:20:29.851Z,26.17
2022-08-31T03:23:10.310Z,26.17
2022-08-31T03:25:35.923Z,26.16
2022-08-31T03:28:08.915Z,26.16
2022-08-31T03:30:41.896Z,26.16
2022-08-31T03:33:14.940Z,26.15
2022-08-31T03:35:47.819Z,26.15
2022-08-31T03:38:20.864Z,26.14
2022-08-31T03:40:53.817Z,26.14
2022-08-31T03:43:26.786Z,26.13
2022-08-31T03:45:59.811Z,26.13
2022-08-31T03:48:32.936Z,26.12
2022-08-31T03:51:05.886Z,26.12
2022-08-31T03:53:38.767Z,26.11
2022-08-31T03:56:11.909Z,26.11
2022-08-31T03:58:44.918Z,26.10
2022-08-31T04:01:17.953Z,26.10
2022-08-31T04:03:50.916Z,26.09
2022-08-31T04:06:23.832Z,26.09
2022-08-31T04:08:56.910Z,26.09
2022-08-31T04:11:45.470Z,26.09
2022-08-31T04:14:02.914Z,26.08
2022-08-31T04:16:35.831Z,26.08
2022-08-31T04:19:08.850Z,26.08
2022-08-31T04:21:44.099Z,26.08
2022-08-31T04:24:14.585Z,26.09
2022-08-31T04:26:47.636Z,26.09
2022-08-31T04:29:20.613Z,26.07
2022-08-31T04:31:53.670Z,26.04
2022-08-31T04:34:26.626Z,25.99
2022-08-31T04:37:02.495Z,25.94
2022-08-31T04:39:35.872Z,25.89
2022-08-31T04:42:08.904Z,25.83
2022-08-31T04:44:41.998Z,25.78
2022-08-31T04:47:14.969Z,25.74
2022-08-31T04:49:48.002Z,25.70
2022-08-31T04:52:21.993Z,25.68
2022-08-31T04:54:56.925Z,25.66
2022-08-31T04:57:30.005Z,25.65
2022-08-31T05:00:04.038Z,25.62
2022-08-31T05:02:37.125Z,25.60
2022-08-31T05:05:09.970Z,25.58
2022-08-31T05:07:43.009Z,25.56
2022-08-31T05:10:15.747Z,25.53
2022-08-31T05:12:48.888Z,25.51
2022-08-31T05:15:21.671Z,25.49
2022-08-31T05:17:54.786Z,25.47
2022-08-31T05:20:27.950Z,25.43
2022-08-31T05:23:00.769Z,25.40
2022-08-31T05:25:33.781Z,25.36
2022-08-31T05:28:07.011Z,25.32
2022-08-31T05:30:40.061Z,25.28
2022-08-31T05:33:13.040Z,25.24
2022-08-31T05:35:46.029Z,25.20
2022-08-31T05:38:18.704Z,25.16
2022-08-31T05:40:51.751Z,25.13
2022-08-31T05:43:25.024Z,25.09
2022-08-31T05:45:58.126Z,25.06
2022-08-31T05:48:31.014Z,25.04
2022-08-31T05:51:03.883Z,25.02
2022-08-31T05:53:36.838Z,25.00
2022-08-31T05:56:09.988Z,24.97
2022-08-31T05:58:46.269Z,24.94
2022-08-31T06:01:19.056Z,24.93
2022-08-31T06:03:52.099Z,24.93
2022-08-31T06:06:24.727Z,24.95
2022-08-31T06:08:58.029Z,24.97
2022-08-31T06:11:30.917Z,24.99
2022-08-31T06:14:03.739Z,25.02
2022-08-31T06:16:37.173Z,25.04
2022-08-31T06:19:10.094Z,25.06
2022-08-31T06:21:49.795Z,25.08
2022-08-31T06:24:15.765Z,25.10
2022-08-31T06:26:49.056Z,25.12
2022-08-31T06:29:22.045Z,25.14
2022-08-31T06:31:55.090Z,25.16
2022-08-31T06:34:27.758Z,25.19
2022-08-31T06:37:01.092Z,25.21
2022-08-31T06:39:33.889Z,25.24
2022-08-31T06:42:07.138Z,25.27
2022-08-31T06:44:39.910Z,25.30
2022-08-31T06:47:12.882Z,25.33
2022-08-31T06:49:47.022Z,25.35
2022-08-31T06:52:19.824Z,25.38
2022-08-31T06:54:52.956Z,25.40
2022-08-31T06:57:26.089Z,25.43
2022-08-31T06:59:58.876Z,25.45
2022-08-31T07:02:31.984Z,25.47
2022-08-31T07:05:05.108Z,25.49
2022-08-31T07:07:38.183Z,25.51
2022-08-31T07:10:11.120Z,25.53
2022-08-31T07:12:44.083Z,25.54
2022-08-31T07:15:16.863Z,25.56
2022-08-31T07:17:50.203Z,25.57
2022-08-31T07:20:23.095Z,25.58
2022-08-31T07:22:56.106Z,25.60
2022-08-31T07:25:28.833Z,25.61
2022-08-31T07:28:02.207Z,25.62
2022-08-31T07:30:34.975Z,25.64
2022-08-31T07:33:08.184Z,25.65
2022-08-31T07:35:41.200Z,25.66
2022-08-31T07:38:14.191Z,25.67
2022-08-31T07:40:47.344Z,25.68
2022-08-31T07:43:20.174Z,25.69
2022-08-31T07:45:52.977Z,25.69
2022-08-31T07:48:26.184Z,25.70
2022-08-31T07:50:59.199Z,25.71
2022-08-31T07:53:32.040Z,25.72
2022-08-31T07:56:05.002Z,25.73
2022-08-31T07:58:37.886Z,25.73
2022-08-31T08:01:10.885Z,25.74
2022-08-31T08:03:43.941Z,25.75
2022-08-31T08:06:17.176Z,25.75
2022-08-31T08:09:12.714Z,25.76
2022-08-31T08:11:23.002Z,25.76
2022-08-31T08:13:55.899Z,25.77
2022-08-31T08:16:29.415Z,25.78
2022-08-31T08:19:02.231Z,25.78
2022-08-31T08:21:35.319Z,25.79
2022-08-31T08:24:08.214Z,25.80
2022-08-31T08:26:41.266Z,25.81
2022-08-31T08:29:14.052Z,25.82
2022-08-31T08:31:47.276Z,25.82
2022-08-31T08:34:20.090Z,25.83
2022-08-31T08:36:53.209Z,25.84
2022-08-31T08:39:26.232Z,25.84
2022-08-31T08:41:59.105Z,25.85
2022-08-31T08:44:32.360Z,25.86
2022-08-31T08:47:05.298Z,25.86
2022-08-31T08:49:38.350Z,25.87
2022-08-31T08:52:11.290Z,25.87
2022-08-31T08:54:44.331Z,25.88
2022-08-31T08:57:17.053Z,25.89
2022-08-31T08:59:50.271Z,25.89
2022-08-31T09:02:23.333Z,25.90
2022-08-31T09:04:56.330Z,25.90
2022-08-31T09:07:29.273Z,25.91
2022-08-31T09:10:02.374Z,25.91
2022-08-31T09:12:35.282Z,25.92
2022-08-31T09:15:08.359Z,25.92
2022-08-31T09:17:41.345Z,25.93
2022-08-31T09:20:14.333Z,25.93
2022-08-31T09:22:47.286Z,25.94
2022-08-31T09:25:20.185Z,25.94
2022-08-31T09:27:53.300Z,25.95
2022-08-31T09:30:26.386Z,25.95
2022-08-31T09:32:59.116Z,25.96
2022-08-31T09:35:32.363Z,25.96
2022-08-31T09:38:05.349Z,25.97
2022-08-31T09:40:38.266Z,25.97
2022-08-31T09:43:11.476Z,25.98
2022-08-31T09:45:44.434Z,25.98
2022-08-31T09:48:17.398Z,25.98
2022-08-31T09:50:50.377Z,25.99
2022-08-31T09:53:23.327Z,25.99
2022-08-31T09:55:56.355Z,25.99
2022-08-31T09:58:29.421Z,26.00
2022-08-31T10:01:02.448Z,26.00
2022-08-31T10:03:35.325Z,26.01
2022-08-31T10:06:08.446Z,26.01
2022-08-31T10:08:41.402Z,26.01
2022-08-31T10:11:14.469Z,26.02
2022-08-31T10:13:47.430Z,26.02
2022-08-31T10:16:20.401Z,26.02
2022-08-31T10:18:53.352Z,26.02
2022-08-31T10:21:26.357Z,26.03
2022-08-31T10:23:59.083Z,26.03
2022-08-31T10:26:32.133Z,26.04
2022-08-31T10:29:05.444Z,26.04
2022-08-31T10:31:38.543Z,26.04
2022-08-31T10:34:11.438Z,26.05
2022-08-31T10:36:44.469Z,26.05
2022-08-31T10:39:17.154Z,26.05
2022-08-31T10:41:50.474Z,26.05
2022-08-31T10:44:23.392Z,26.05
2022-08-31T10:46:56.490Z,26.05
2022-08-31T10:49:29.418Z,26.05
2022-08-31T10:52:02.482Z,26.06
2022-08-31T10:54:35.472Z,26.06
2022-08-31T10:57:08.475Z,26.06
2022-08-31T10:59:41.366Z,26.06
2022-08-31T11:02:14.493Z,26.06
2022-08-31T11:04:47.364Z,26.06
2022-08-31T11:07:20.180Z,26.07
2022-08-31T11:09:53.328Z,26.07
2022-08-31T11:12:26.482Z,26.07
2022-08-31T11:14:59.480Z,26.07
2022-08-31T11:17:32.516Z,26.07
2022-08-31T11:20:05.516Z,26.08
2022-08-31T11:22:38.360Z,26.08
2022-08-31T11:25:11.478Z,26.08
2022-08-31T11:27:44.678Z,26.08
2022-08-31T11:30:18.539Z,26.09
2022-08-31T11:32:51.517Z,26.09
2022-08-31T11:35:24.476Z,26.09
2022-08-31T11:37:57.213Z,26.10
2022-08-31T11:40:30.468Z,26.10
2022-08-31T11:43:03.189Z,26.10
2022-08-31T11:45:36.349Z,26.11
2022-08-31T11:48:09.355Z,26.11
2022-08-31T11:50:42.316Z,26.11
2022-08-31T11:53:15.365Z,26.12
2022-08-31T11:55:48.251Z,26.12
2022-08-31T11:58:21.429Z,26.13
2022-08-31T12:00:54.427Z,26.13
2022-08-31T12:03:27.551Z,26.14
2022-08-31T12:06:00.584Z,26.14
2022-08-31T12:08:33.611Z,26.15
2022-08-31T12:11:06.254Z,26.15
2022-08-31T12:13:39.526Z,26.15
2022-08-31T12:16:12.621Z,26.16
2022-08-31T12:18:45.621Z,26.16
2022-08-31T12:21:18.591Z,26.16
2022-08-31T12:23:51.628Z,26.16
2022-08-31T12:26:24.580Z,26.16
2022-08-31T12:28:57.593Z,26.16
2022-08-31T12:31:30.680Z,26.16
2022-08-31T12:34:03.606Z,26.16
2022-08-31T12:36:36.555Z,26.17
2022-08-31T12:39:09.550Z,26.17
2022-08-31T12:41:42.606Z,26.18
2022-08-31T12:44:15.649Z,26.18
2022-08-31T12:46:48.734Z,26.19
2022-08-31T12:49:21.607Z,26.19
2022-08-31T12:51:54.795Z,26.20
2022-08-31T12:54:28.583Z,26.21
2022-08-31T12:57:01.650Z,26.22
2022-08-31T12:59:57.264Z,26.23
2022-08-31T13:02:07.441Z,26.24
2022-08-31T13:04:40.487Z,26.25
2022-08-31T13:07:13.325Z,26.26
2022-08-31T13:09:46.694Z,26.27
2022-08-31T13:12:19.616Z,26.28
2022-08-31T13:14:52.701Z,26.29
2022-08-31T13:17:25.647Z,26.30
2022-08-31T13:19:58.345Z,26.31
2022-08-31T13:22:31.498Z,26.31
2022-08-31T13:25:04.660Z,26.32
2022-08-31T13:27:37.609Z,26.33
2022-08-31T13:30:10.347Z,26.34
2022-08-31T13:32:43.498Z,26.36
2022-08-31T13:35:16.500Z,26.37
2022-08-31T13:37:49.416Z,26.38
2022-08-31T13:40:22.460Z,26.40
2022-08-31T13:42:57.161Z,26.41
2022-08-31T13:45:28.392Z,26.42
2022-08-31T13:48:01.383Z,26.43
2022-08-31T13:50:34.371Z,26.44
2022-08-31T13:53:26.429Z,26.45
2022-08-31T13:55:40.539Z,26.47
2022-08-31T13:58:27.324Z,26.48
2022-08-31T14:01:00.426Z,26.49
2022-08-31T14:03:33.390Z,26.51
2022-08-31T14:06:06.512Z,26.53
2022-08-31T14:08:43.305Z,26.54
2022-08-31T14:11:16.408Z,26.55
2022-08-31T14:13:49.545Z,26.56
2022-08-31T14:16:22.446Z,26.57
2022-08-31T14:18:55.529Z,26.57
2022-08-31T14:21:28.463Z,26.58
2022-08-31T14:24:02.065Z,26.59
2022-08-31T14:26:34.722Z,26.59
2022-08-31T14:29:07.515Z,26.60
2022-08-31T14:31:40.568Z,26.60
2022-08-31T14:34:13.711Z,26.60
2022-08-31T14:36:46.823Z,26.60
2022-08-31T14:39:19.439Z,26.61
2022-08-31T14:41:52.901Z,26.61
2022-08-31T14:44:26.449Z,26.61
2022-08-31T14:46:59.633Z,26.61
2022-08-31T14:49:36.215Z,26.61
2022-08-31T14:52:05.510Z,26.61
2022-08-31T14:54:38.602Z,26.62
2022-08-31T14:57:11.515Z,26.62
2022-08-31T14:59:44.585Z,26.62
2022-08-31T15:02:17.664Z,26.62
2022-08-31T15:04:50.603Z,26.62
2022-08-31T15:07:23.620Z,26.62
2022-08-31T15:09:56.796Z,26.62
2022-08-31T15:12:29.558Z,26.62
2022-08-31T15:15:02.552Z,26.62
2022-08-31T15:17:35.777Z,26.62
2022-08-31T15:20:08.870Z,26.62
2022-08-31T15:22:41.775Z,26.63
2022-08-31T15:25:14.855Z,26.64
2022-08-31T15:27:47.791Z,26.64
2022-08-31T15:30:20.521Z,26.65
2022-08-31T15:32:53.705Z,26.67
2022-08-31T15:35:26.549Z,26.68
2022-08-31T15:37:59.596Z,26.69
2022-08-31T15:40:36.604Z,26.70
2022-08-31T15:43:05.554Z,26.70
2022-08-31T15:45:40.030Z,26.71
2022-08-31T15:48:12.833Z,26.72
2022-08-31T15:50:45.651Z,26.73
2022-08-31T15:53:18.740Z,26.73
2022-08-31T15:55:51.590Z,26.74
2022-08-31T15:58:25.254Z,26.75
2022-08-31T16:00:57.692Z,26.75
2022-08-31T16:03:34.746Z,26.76
2022-08-31T16:06:03.642Z,26.77
2022-08-31T16:08:36.712Z,26.78
2022-08-31T16:11:09.737Z,26.79
2022-08-31T16:13:42.789Z,26.80
2022-08-31T16:16:15.776Z,26.80
2022-08-31T16:18:48.677Z,26.81
2022-08-31T16:21:24.518Z,26.82
2022-08-31T16:23:57.783Z,26.83
2022-08-31T16:26:30.871Z,26.83
2022-08-31T16:29:03.657Z,26.84
2022-08-31T16:31:36.721Z,26.85
2022-08-31T16:34:09.681Z,26.86
2022-08-31T16:36:42.702Z,26.88
2022-08-31T16:39:15.844Z,26.88
2022-08-31T16:41:48.988Z,26.89
2022-08-31T16:44:21.656Z,26.90
2022-08-31T16:46:55.037Z,26.91
2022-08-31T16:49:27.931Z,26.92
2022-08-31T16:52:04.794Z,26.93
2022-08-31T16:54:37.859Z,26.94
2022-08-31T16:57:10.800Z,26.95
2022-08-31T16:59:43.825Z,26.96
2022-08-31T17:02:16.778Z,26.97
2022-08-31T17:04:54.069Z,26.97
2022-08-31T17:07:22.695Z,26.98
2022-08-31T17:09:55.752Z,26.98
2022-08-31T17:12:28.702Z,26.98
2022-08-31T17:15:02.018Z,26.98
2022-08-31T17:17:35.042Z,26.98
2022-08-31T17:20:07.943Z,26.97
2022-08-31T17:22:40.951Z,26.97
2022-08-31T17:25:14.039Z,26.96
2022-08-31T17:27:47.691Z,26.95
2022-08-31T17:30:19.930Z,26.95
2022-08-31T17:32:53.046Z,26.94
2022-08-31T17:35:25.946Z,26.93
2022-08-31T17:37:59.056Z,26.93
2022-08-31T17:40:32.108Z,26.92
2022-08-31T17:43:04.837Z,26.91
2022-08-31T17:45:37.741Z,26.91
2022-08-31T17:48:11.040Z,26.90
2022-08-31T17:50:43.736Z,26.90
2022-08-31T17:53:17.133Z,26.89
2022-08-31T17:55:50.085Z,26.89
2022-08-31T17:58:23.063Z,26.88
2022-08-31T18:00:56.103Z,26.87
2022-08-31T18:03:29.061Z,26.87
2022-08-31T18:06:02.005Z,26.86
2022-08-31T18:08:35.118Z,26.86
2022-08-31T18:11:07.784Z,26.85
2022-08-31T18:13:41.122Z,26.85
2022-08-31T18:16:14.250Z,26.84
2022-08-31T18:18:48.091Z,26.84
2022-08-31T18:21:21.164Z,26.83
2022-08-31T18:23:54.142Z,26.83
2022-08-31T18:26:27.111Z,26.83
2022-08-31T18:28:59.962Z,26.83
2022-08-31T18:31:32.955Z,26.82
2022-08-31T18:34:05.941Z,26.82
2022-08-31T18:36:39.118Z,26.82
2022-08-31T18:39:11.806Z,26.82
2022-08-31T18:41:45.293Z,26.82
2022-08-31T18:44:18.918Z,26.82
2022-08-31T18:46:52.188Z,26.82
2022-08-31T18:49:24.893Z,26.82
2022-08-31T18:51:57.984Z,26.82
2022-08-31T18:54:30.991Z,26.82
2022-08-31T18:57:04.123Z,26.82
2022-08-31T18:59:37.027Z,26.81
2022-08-31T19:02:10.147Z,26.81
2022-08-31T19:04:43.154Z,26.81
2022-08-31T19:07:15.978Z,26.81
2022-08-31T19:09:49.011Z,26.81
2022-08-31T19:12:21.873Z,26.80
2022-08-31T19:14:55.283Z,26.80
2022-08-31T19:17:29.296Z,26.81
2022-08-31T19:20:03.918Z,26.80
2022-08-31T19:22:36.327Z,26.80
2022-08-31T19:25:09.944Z,26.80
2022-08-31T19:27:43.109Z,26.79
2022-08-31T19:30:15.989Z,26.79
2022-08-31T19:32:51.192Z,26.78
2022-08-31T19:35:25.879Z,26.78
2022-08-31T19:37:56.810Z,26.78
2022-08-31T19:40:36.747Z,26.77
2022-08-31T19:45:43.446Z,26.77
2022-08-31T19:48:11.168Z,26.76
2022-08-31T19:50:43.914Z,26.76
2022-08-31T19:53:20.697Z,26.75
2022-08-31T19:55:51.287Z,26.75
2022-08-31T19:58:24.161Z,26.74
2022-08-31T20:01:00.936Z,26.74
2022-08-31T20:03:31.331Z,26.73
2022-08-31T20:06:04.265Z,26.73
2022-08-31T20:08:37.286Z,26.72
2022-08-31T20:11:10.204Z,26.71
2022-08-31T20:13:43.081Z,26.70
2022-08-31T20:16:16.321Z,26.69
2022-08-31T20:18:49.459Z,26.67
2022-08-31T20:21:22.977Z,26.66
2022-08-31T20:23:56.195Z,26.65
2022-08-31T20:26:33.108Z,26.64
2022-08-31T20:29:01.978Z,26.63
2022-08-31T20:31:35.348Z,26.62
2022-08-31T20:34:08.155Z,26.61
2022-08-31T20:36:45.153Z,26.60
2022-08-31T20:39:18.243Z,26.59
2022-08-31T20:41:51.330Z,26.58
2022-08-31T20:44:24.254Z,26.57
2022-08-31T20:46:57.369Z,26.56
2022-08-31T20:49:30.175Z,26.54
2022-08-31T20:52:02.981Z,26.53
2022-08-31T20:54:36.017Z,26.52
2022-08-31T20:57:08.975Z,26.51
2022-08-31T20:59:42.150Z,26.50
2022-08-31T21:02:15.012Z,26.48
2022-08-31T21:04:47.985Z,26.47
2022-08-31T21:07:21.250Z,26.46
2022-08-31T21:09:54.361Z,26.44
2022-08-31T21:12:27.266Z,26.43
2022-08-31T21:15:00.191Z,26.42
2022-08-31T21:17:33.327Z,26.41
2022-08-31T21:20:06.434Z,26.40
2022-08-31T21:22:39.329Z,26.39
2022-08-31T21:25:12.378Z,26.38
2022-08-31T21:27:45.393Z,26.37
2022-08-31T21:30:18.064Z,26.36
2022-08-31T21:32:51.373Z,26.35
2022-08-31T21:35:24.315Z,26.34
2022-08-31T21:37:57.370Z,26.33
2022-08-31T21:40:30.514Z,26.32
2022-08-31T21:43:03.374Z,26.32
2022-08-31T21:45:36.437Z,26.31
2022-08-31T21:48:09.341Z,26.30
2022-08-31T21:50:56.473Z,26.29
2022-08-31T21:53:29.386Z,26.27
2022-08-31T21:56:02.392Z,26.26
2022-08-31T21:58:35.406Z,26.25
2022-08-31T22:01:08.450Z,26.24
2022-08-31T22:03:41.329Z,26.23
2022-08-31T22:06:14.422Z,26.22
2022-08-31T22:08:47.336Z,26.21
2022-08-31T22:11:20.342Z,26.20
2022-08-31T22:13:53.238Z,26.19
2022-08-31T22:16:26.505Z,26.18
2022-08-31T22:19:02.209Z,26.17
2022-08-31T22:21:32.437Z,26.15
2022-08-31T22:24:05.477Z,26.14
2022-08-31T22:26:38.434Z,26.13
2022-08-31T22:29:11.515Z,26.12
2022-08-31T22:31:46.425Z,26.11
2022-08-31T22:34:19.499Z,26.09
2022-08-31T22:36:52.510Z,26.08
2022-08-31T22:39:25.477Z,26.07
2022-08-31T22:41:58.534Z,26.06
2022-08-31T22:44:31.425Z,26.05
2022-08-31T22:47:04.498Z,26.04
2022-08-31T22:49:37.467Z,26.03
2022-08-31T22:52:14.042Z,26.02
2022-08-31T22:54:43.438Z,26.02
2022-08-31T22:57:16.487Z,26.01
2022-08-31T22:59:49.503Z,26.01
2022-08-31T23:02:22.416Z,26.00
2022-08-31T23:04:55.533Z,25.99
2022-08-31T23:07:28.452Z,25.97
2022-08-31T23:10:01.337Z,25.96
2022-08-31T23:12:34.569Z,25.95
2022-08-31T23:15:07.529Z,25.94
2022-08-31T23:17:40.581Z,25.93
2022-08-31T23:20:13.245Z,25.92
2022-08-31T23:22:46.516Z,25.90
2022-08-31T23:25:19.582Z,25.90
2022-08-31T23:27:52.458Z,25.89
2022-08-31T23:30:29.335Z,25.87
2022-08-31T23:33:02.548Z,25.86
2022-08-31T23:35:35.612Z,25.85
2022-08-31T23:38:08.516Z,25.84
2022-08-31T23:40:41.417Z,25.83
2022-08-31T23:43:14.610Z,25.82
2022-08-31T23:45:47.600Z,25.81
2022-08-31T23:48:20.681Z,25.80
2022-08-31T23:50:53.506Z,25.79
2022-08-31T23:53:26.490Z,25.78
2022-08-31T23:55:59.587Z,25.77
2022-08-31T23:58:32.597Z,25.77
